Black Eagle, Montana
Current Conditions -  °F | °C
As of 12:23 AM on Saturday 29 Nov 2014 (Local Time) from KGFA Reporting Station
Snow Showers Snow Showers  
Wind Chill: -21°   Ceiling: 2400
Heat Index:   Visibility: 10mi
Dew Point: -8°   Wind: 16mph
Humidity: 72%   Direction: 330°NNW
Pressure: 29.66"   Gusts: 20mph
Location:  47.53°N, 111.28°W
Report Text: KGFA 290723Z AUTO 33014G17KT 10SM -SHSN BKN024 M18/M22 A2966 RMK AO2
Loading
Personal Weather Stations






























Interactive Weather Map New forecast layout! Learn more

10-Day Weather Forecast

Advertisements
Track Severe Weather on mobile